Kezdőlap
METAR-TAF:

METAR-TAF

Repülőterek :

Ataq, Jemen

földrajzi szélesség: 14-31N, földrajzi hosszúság: 046-51E, magasság: 1067 m

Jelenlegi meteorológiai megfigyelések

A jelentés 12 órával és 44 perccel ezelõtt készült, 15:00 UTC
Délkeleti szél 15 kt
Hőmérséklet 34°C
Páratartalom 44%
Légköri nyomás 1009 hPa
Látótávolság 10 km, vagy több
Szórványos felhőzet 2500 lábon

METAR: OYAT 211500Z 14015KT 9999 SCT025 34/20 Q1009

Idő: 06:44 (03:44 UTC)


TAF: hiányzik

Meteorológiai megfigyelések és előrejelzések több, mint 4000 repülőtéren (METAR és TAF jelentéseket).

A térképen piros és sárga pontok jelzik az elérhető meteorológiai állomásokat.

Mozgassa az egeret a pont fölött, hogy megjelenjen az állomás neve.

Azután kattintson az időjárási megfigyelések és előrejelzések megtekintéséhez.

A térkép megváltoztatása: kattintson a fekete keresztel jelölt zöld gombra ráközelítéshez, a vonallal jelölt zöld gombra távolításhoz, vagy a zöld nyilakra a szomszédos térképek eléréséhez.


METAR-TAF: